Flight Track Log - Related Links

Times and Time Zones

All times are in EDT time to prevent confusion due to time zone crossing. See the FIN666 flight status page for this flight to view local times or setup timezone preferences in your user account.

Time Position Orientation Groundspeed Altitude Reporting Facility
EDT Latitude Longitude Course Direction KTS MPH feet Rate Location/Type
Sat 07:30:00 AM 55.8420 13.1192 49° Northeast  Level Estimated
Sat 07:31:00 AM 55.9164 13.2747 50° Northeast  Level Estimated
Sat 07:32:00 AM 55.9905 13.4309 50° Northeast  Level Estimated
Sat 07:33:00 AM 56.0644 13.5877 50° Northeast  Level Estimated
Sat 07:34:00 AM 56.1381 13.7451 50° Northeast  Level Estimated
Sat 07:35:00 AM 56.2117 13.9031 50° Northeast  Level Estimated
Sat 07:36:00 AM 56.2850 14.0617 50° Northeast  Level Estimated
Sat 07:37:00 AM 56.3581 14.2208 50° Northeast  Level Estimated
Sat 07:38:00 AM 56.4310 14.3807 50° Northeast  Level Estimated
Sat 07:39:00 AM 56.5037 14.5411 51° Northeast  Level Estimated
Sat 07:40:00 AM 56.5762 14.7021 51° Northeast  Level Estimated
Sat 07:41:00 AM 56.6485 14.8638 51° Northeast  Level Estimated
Sat 07:42:00 AM 56.7206 15.0260 51° Northeast  Level Estimated
Sat 07:43:00 AM 56.7925 15.1889 51° Northeast  Level Estimated
Sat 07:44:00 AM 56.8641 15.3525 51° Northeast  Level Estimated
Sat 07:45:00 AM 56.9356 15.5166 51° Northeast  Level Estimated
Sat 07:46:00 AM 57.0068 15.6814 52° Northeast  Level Estimated
Sat 07:47:00 AM 57.0778 15.8468 52° Northeast  Level Estimated
Sat 07:48:00 AM 57.1486 16.0129 52° Northeast  Level Estimated
Sat 07:49:00 AM 57.2192 16.1795 52° Northeast  Level Estimated
Sat 07:50:00 AM 57.2895 16.3468 52° Northeast  Level Estimated
Sat 07:51:00 AM 57.3596 16.5148 52° Northeast  Level Estimated
Sat 07:52:00 AM 57.4285 16.6810 52° Northeast  Level Estimated
Sat 07:53:00 AM 57.4972 16.8479 52° Northeast  Level Estimated
Sat 07:54:00 AM 57.5657 17.0154 53° Northeast  Level Estimated
Sat 07:55:00 AM 57.6340 17.1835 53° Northeast  Level Estimated
Sat 07:56:00 AM 57.7020 17.3522 53° Northeast  Level Estimated
Sat 07:57:00 AM 57.7698 17.5216 53° Northeast  Level Estimated
Sat 07:58:00 AM 57.8374 17.6916 53° Northeast  Level Estimated
Sat 07:59:00 AM 57.9047 17.8622 53° Northeast  Level Estimated
Sat 08:00:00 AM 57.9719 18.0335 53° Northeast  Level Estimated
Sat 08:01:00 AM 58.0387 18.2054 54° Northeast  Level Estimated
Sat 08:02:00 AM 58.1054 18.3780 54° Northeast  Level Estimated
Sat 08:03:00 AM 58.1718 18.5512 54° Northeast  Level Estimated
Sat 08:04:00 AM 58.2380 18.7251 54° Northeast  Level Estimated
Sat 08:05:00 AM 58.3040 18.8996 54° Northeast  Level Estimated
Sat 08:06:00 AM 58.3697 19.0747 54° Northeast  Level Estimated
Sat 08:07:00 AM 58.4352 19.2505 55° Northeast  Level Estimated
Sat 08:08:00 AM 58.5004 19.4270 55° Northeast  Level Estimated
Sat 08:09:00 AM 58.5654 19.6041 55° Northeast  Level Estimated
Sat 08:10:00 AM 58.6301 19.7819 55° Northeast  Level Estimated
Sat 08:11:00 AM 58.6946 19.9604 55° Northeast  Level Estimated
Sat 08:12:00 AM 58.7589 20.1395 55° Northeast  Level Estimated
Sat 08:13:00 AM 58.8229 20.3192 55° Northeast  Level Estimated
Sat 08:14:00 AM 58.8866 20.4996 56° Northeast  Level Estimated
Sat 08:15:00 AM 58.9501 20.6807 56° Northeast  Level Estimated
Sat 08:16:00 AM 59.0134 20.8625 56° Northeast  Level Estimated
Sat 08:17:00 AM 59.0763 21.0449 56° Northeast  Level Estimated
Sat 08:18:00 AM 59.1391 21.2280 56° Northeast  Level Estimated
Sat 08:19:00 AM 59.2015 21.4118 56° Northeast  Level Estimated
Sat 08:20:00 AM 59.2638 21.5962 57° Northeast  Level Estimated
Sat 08:21:00 AM 59.3275 21.7867 57° Northeast  Level Estimated
Sat 08:22:00 AM 59.3910 21.9779 57° Northeast  Level Estimated
Sat 08:23:00 AM 59.4542 22.1698 57° Northeast  Level Estimated
Sat 08:24:00 AM 59.5171 22.3625 57° Northeast  Level Estimated
Sat 08:25:00 AM 59.5797 22.5558 57° Northeast  Level Estimated
Sat 08:26:00 AM 59.6420 22.7499 58° Northeast  Level Estimated
Sat 08:27:00 AM 59.7040 22.9447 58° Northeast  Level Estimated
Sat 08:28:00 AM 59.7658 23.1402 58° Northeast  Level Estimated
Sat 08:29:00 AM 59.8273 23.3364 58° Northeast  Level Estimated
Sat 08:30:00 AM 59.8884 23.5334 58° Northeast  Level Estimated
Sat 08:31:00 AM 59.9493 23.7311 58° Northeast  Level Estimated
Sat 08:32:00 AM 60.0099 23.9295 59° Northeast  Level Estimated
Sat 08:33:00 AM 60.0701 24.1286 59° Northeast  Level Estimated
Sat 08:34:00 AM 60.1301 24.3285 59° Northeast  Level Estimated
Sat 08:35:00 AM 60.1898 24.5291 59° Northeast  Level Estimated
Sat 08:36:00 AM 60.2492 24.7304 59° Northeast  Level Estimated
Sat 08:37:00 AM 60.3082 24.9324 59° Northeast  Level Estimated
Sat 08:38:00 AM 60.3172 24.9633 60° Northeast  Level Estimated
Sat 08:39:00 AM 60.3172 24.9633 North  Level Estimated
Sat 08:40:00 AM 60.3172 24.9633 North  Level Estimated
Sat 08:41:00 AM 60.3172 24.9633 North  Level Estimated
Sat 08:42:00 AM 60.3172 24.9633 North  Level Estimated
Sat 08:43:00 AM 60.3172 24.9633 North  Level Estimated
Sat 08:44:00 AM 60.3172 24.9633 North  Level Estimated
Sat 08:45:00 AM 60.3172 24.9633 North  Level Estimated
Sat 08:46:00 AM 60.3172 24.9633 North  Level Estimated
Sat 08:47:00 AM 60.3172 24.9633 North  Level Estimated
Sat 08:48:00 AM 60.3172 24.9633 North  Level Estimated
Sat 08:49:00 AM 60.3172 24.9633 North  Level Estimated
Sat 08:50:00 AM 60.3172 24.9633 North  Level Estimated
Sat 08:51:00 AM 60.3172 24.9633 North  Level Estimated
Sat 08:52:00 AM 60.3172 24.9633 North  Level Estimated

Login

Don't have an account? Register now (free) for customized features, flight alerts, and more!